sensor_id;sensor_type;location;lat;lon;timestamp;P1;durP1;ratioP1;P2;durP2;ratioP2
38238;SDS011;24035;48.900;9.188;2022-08-05T00:01:50;4.30;;;2.10;;
38238;SDS011;24035;48.900;9.188;2022-08-05T00:04:16;7.03;;;2.25;;
38238;SDS011;24035;48.900;9.188;2022-08-05T00:06:42;5.38;;;2.25;;
38238;SDS011;24035;48.900;9.188;2022-08-05T00:09:07;6.40;;;2.03;;
38238;SDS011;24035;48.900;9.188;2022-08-05T00:11:33;4.38;;;2.40;;
38238;SDS011;24035;48.900;9.188;2022-08-05T00:13:59;4.32;;;2.17;;
38238;SDS011;24035;48.900;9.188;2022-08-05T00:16:24;6.65;;;2.03;;
38238;SDS011;24035;48.900;9.188;2022-08-05T00:18:50;5.00;;;2.35;;
38238;SDS011;24035;48.900;9.188;2022-08-05T00:21:16;5.40;;;2.20;;
38238;SDS011;24035;48.900;9.188;2022-08-05T00:23:43;5.32;;;2.15;;
38238;SDS011;24035;48.900;9.188;2022-08-05T00:26:10;5.20;;;2.50;;
38238;SDS011;24035;48.900;9.188;2022-08-05T00:28:36;4.28;;;2.03;;
38238;SDS011;24035;48.900;9.188;2022-08-05T00:31:02;4.47;;;2.30;;
38238;SDS011;24035;48.900;9.188;2022-08-05T00:33:29;4.38;;;2.45;;
38238;SDS011;24035;48.900;9.188;2022-08-05T00:35:54;4.55;;;2.25;;
38238;SDS011;24035;48.900;9.188;2022-08-05T00:38:20;4.55;;;2.17;;
38238;SDS011;24035;48.900;9.188;2022-08-05T00:40:50;7.15;;;2.70;;
38238;SDS011;24035;48.900;9.188;2022-08-05T00:43:18;5.07;;;2.55;;
38238;SDS011;24035;48.900;9.188;2022-08-05T00:45:44;5.45;;;2.28;;
38238;SDS011;24035;48.900;9.188;2022-08-05T00:48:15;5.15;;;2.60;;
38238;SDS011;24035;48.900;9.188;2022-08-05T00:50:44;7.35;;;2.80;;
38238;SDS011;24035;48.900;9.188;2022-08-05T00:53:11;5.22;;;2.10;;
38238;SDS011;24035;48.900;9.188;2022-08-05T00:55:37;5.28;;;2.08;;
38238;SDS011;24035;48.900;9.188;2022-08-05T00:58:03;4.53;;;2.00;;
38238;SDS011;24035;48.900;9.188;2022-08-05T01:00:29;4.57;;;1.70;;
38238;SDS011;24035;48.900;9.188;2022-08-05T01:02:56;3.08;;;1.65;;
38238;SDS011;24035;48.900;9.188;2022-08-05T01:05:22;6.72;;;1.73;;
38238;SDS011;24035;48.900;9.188;2022-08-05T01:07:49;2.75;;;1.27;;
38238;SDS011;24035;48.900;9.188;2022-08-05T01:10:15;2.80;;;1.45;;
38238;SDS011;24035;48.900;9.188;2022-08-05T01:12:46;4.53;;;1.65;;
38238;SDS011;24035;48.900;9.188;2022-08-05T01:15:17;3.28;;;1.33;;
38238;SDS011;24035;48.900;9.188;2022-08-05T01:17:59;4.07;;;1.65;;
38238;SDS011;24035;48.900;9.188;2022-08-05T01:23:26;3.30;;;1.30;;
38238;SDS011;24035;48.900;9.188;2022-08-05T01:29:24;2.85;;;1.30;;
38238;SDS011;24035;48.900;9.188;2022-08-05T01:31:57;3.85;;;1.38;;
38238;SDS011;24035;48.900;9.188;2022-08-05T01:34:30;5.95;;;1.40;;
38238;SDS011;24035;48.900;9.188;2022-08-05T01:37:01;3.08;;;1.40;;
38238;SDS011;24035;48.900;9.188;2022-08-05T01:39:43;3.53;;;1.17;;
38238;SDS011;24035;48.900;9.188;2022-08-05T01:42:12;2.75;;;1.23;;
38238;SDS011;24035;48.900;9.188;2022-08-05T01:44:40;5.00;;;2.35;;
38238;SDS011;24035;48.900;9.188;2022-08-05T01:47:08;3.25;;;1.10;;
38238;SDS011;24035;48.900;9.188;2022-08-05T01:49:34;4.50;;;1.48;;
38238;SDS011;24035;48.900;9.188;2022-08-05T01:52:03;4.07;;;1.33;;
38238;SDS011;24035;48.900;9.188;2022-08-05T01:54:40;3.10;;;1.13;;
38238;SDS011;24035;48.900;9.188;2022-08-05T01:57:09;3.88;;;1.40;;
38238;SDS011;24035;48.900;9.188;2022-08-05T01:59:37;2.90;;;1.25;;
38238;SDS011;24035;48.900;9.188;2022-08-05T02:02:06;3.28;;;1.27;;
38238;SDS011;24035;48.900;9.188;2022-08-05T02:04:36;4.65;;;1.25;;
38238;SDS011;24035;48.900;9.188;2022-08-05T02:07:04;3.70;;;1.20;;
38238;SDS011;24035;48.900;9.188;2022-08-05T02:09:30;2.90;;;1.15;;
38238;SDS011;24035;48.900;9.188;2022-08-05T02:12:02;3.22;;;1.25;;
38238;SDS011;24035;48.900;9.188;2022-08-05T02:14:32;4.35;;;1.13;;
38238;SDS011;24035;48.900;9.188;2022-08-05T02:17:10;3.25;;;1.35;;
38238;SDS011;24035;48.900;9.188;2022-08-05T02:19:45;2.83;;;1.27;;
38238;SDS011;24035;48.900;9.188;2022-08-05T02:22:18;6.53;;;1.50;;
38238;SDS011;24035;48.900;9.188;2022-08-05T02:24:52;3.08;;;1.35;;
38238;SDS011;24035;48.900;9.188;2022-08-05T02:27:25;4.82;;;2.45;;
38238;SDS011;24035;48.900;9.188;2022-08-05T02:29:52;4.30;;;1.85;;
38238;SDS011;24035;48.900;9.188;2022-08-05T02:32:19;2.90;;;1.20;;
38238;SDS011;24035;48.900;9.188;2022-08-05T02:34:46;3.65;;;1.50;;
38238;SDS011;24035;48.900;9.188;2022-08-05T02:37:14;5.13;;;1.83;;
38238;SDS011;24035;48.900;9.188;2022-08-05T02:39:44;5.90;;;1.42;;
38238;SDS011;24035;48.900;9.188;2022-08-05T02:42:11;3.67;;;1.38;;
38238;SDS011;24035;48.900;9.188;2022-08-05T02:47:51;4.28;;;1.65;;
38238;SDS011;24035;48.900;9.188;2022-08-05T02:50:19;4.38;;;1.55;;
38238;SDS011;24035;48.900;9.188;2022-08-05T02:52:47;3.35;;;1.60;;
38238;SDS011;24035;48.900;9.188;2022-08-05T02:55:13;6.18;;;1.48;;
38238;SDS011;24035;48.900;9.188;2022-08-05T02:57:39;5.60;;;1.60;;
38238;SDS011;24035;48.900;9.188;2022-08-05T03:00:06;3.65;;;1.95;;
38238;SDS011;24035;48.900;9.188;2022-08-05T03:02:35;3.30;;;1.48;;
38238;SDS011;24035;48.900;9.188;2022-08-05T03:05:03;5.38;;;1.30;;
38238;SDS011;24035;48.900;9.188;2022-08-05T03:07:33;3.03;;;1.30;;
38238;SDS011;24035;48.900;9.188;2022-08-05T03:09:59;3.33;;;1.20;;
38238;SDS011;24035;48.900;9.188;2022-08-05T03:12:31;3.10;;;1.20;;
38238;SDS011;24035;48.900;9.188;2022-08-05T03:14:59;3.50;;;1.73;;
38238;SDS011;24035;48.900;9.188;2022-08-05T03:17:25;4.15;;;1.52;;
38238;SDS011;24035;48.900;9.188;2022-08-05T03:19:51;2.50;;;1.20;;
38238;SDS011;24035;48.900;9.188;2022-08-05T03:22:17;3.25;;;1.42;;
38238;SDS011;24035;48.900;9.188;2022-08-05T03:24:43;3.53;;;1.30;;
38238;SDS011;24035;48.900;9.188;2022-08-05T03:27:10;3.20;;;1.20;;
38238;SDS011;24035;48.900;9.188;2022-08-05T03:29:36;3.30;;;1.50;;
38238;SDS011;24035;48.900;9.188;2022-08-05T03:32:04;2.28;;;1.20;;
38238;SDS011;24035;48.900;9.188;2022-08-05T03:34:33;6.38;;;1.85;;
38238;SDS011;24035;48.900;9.188;2022-08-05T03:37:00;6.00;;;1.90;;
38238;SDS011;24035;48.900;9.188;2022-08-05T03:39:27;5.35;;;1.65;;
38238;SDS011;24035;48.900;9.188;2022-08-05T03:41:54;3.30;;;1.55;;
38238;SDS011;24035;48.900;9.188;2022-08-05T03:44:20;3.97;;;1.35;;
38238;SDS011;24035;48.900;9.188;2022-08-05T03:46:46;3.50;;;1.40;;
38238;SDS011;24035;48.900;9.188;2022-08-05T03:49:12;4.15;;;1.60;;
38238;SDS011;24035;48.900;9.188;2022-08-05T03:51:38;8.52;;;2.38;;
38238;SDS011;24035;48.900;9.188;2022-08-05T03:54:13;6.38;;;1.65;;
38238;SDS011;24035;48.900;9.188;2022-08-05T03:56:45;3.53;;;1.40;;
38238;SDS011;24035;48.900;9.188;2022-08-05T03:59:22;4.55;;;1.98;;
38238;SDS011;24035;48.900;9.188;2022-08-05T04:01:50;3.08;;;1.40;;
38238;SDS011;24035;48.900;9.188;2022-08-05T04:04:19;4.15;;;1.90;;
38238;SDS011;24035;48.900;9.188;2022-08-05T04:06:46;4.18;;;1.88;;
38238;SDS011;24035;48.900;9.188;2022-08-05T04:09:12;4.20;;;1.60;;
38238;SDS011;24035;48.900;9.188;2022-08-05T04:11:39;5.00;;;1.58;;
38238;SDS011;24035;48.900;9.188;2022-08-05T04:14:05;3.20;;;1.35;;
38238;SDS011;24035;48.900;9.188;2022-08-05T04:16:31;5.45;;;1.63;;
38238;SDS011;24035;48.900;9.188;2022-08-05T04:18:59;3.17;;;1.40;;
38238;SDS011;24035;48.900;9.188;2022-08-05T04:21:26;5.22;;;2.08;;
38238;SDS011;24035;48.900;9.188;2022-08-05T04:23:52;6.85;;;2.05;;
38238;SDS011;24035;48.900;9.188;2022-08-05T04:26:18;6.93;;;1.63;;
38238;SDS011;24035;48.900;9.188;2022-08-05T04:28:44;6.30;;;1.50;;
38238;SDS011;24035;48.900;9.188;2022-08-05T04:31:10;4.10;;;1.63;;
38238;SDS011;24035;48.900;9.188;2022-08-05T04:33:35;6.13;;;1.60;;
38238;SDS011;24035;48.900;9.188;2022-08-05T04:36:01;5.72;;;1.65;;
38238;SDS011;24035;48.900;9.188;2022-08-05T04:38:27;7.38;;;2.38;;
38238;SDS011;24035;48.900;9.188;2022-08-05T04:40:53;4.30;;;1.58;;
38238;SDS011;24035;48.900;9.188;2022-08-05T04:43:18;5.38;;;1.50;;
38238;SDS011;24035;48.900;9.188;2022-08-05T04:45:44;5.20;;;1.70;;
38238;SDS011;24035;48.900;9.188;2022-08-05T04:48:11;4.95;;;1.80;;
38238;SDS011;24035;48.900;9.188;2022-08-05T04:50:41;4.88;;;1.85;;
38238;SDS011;24035;48.900;9.188;2022-08-05T04:53:09;9.23;;;1.58;;
38238;SDS011;24035;48.900;9.188;2022-08-05T04:55:36;4.72;;;2.42;;
38238;SDS011;24035;48.900;9.188;2022-08-05T04:58:03;3.83;;;1.67;;
38238;SDS011;24035;48.900;9.188;2022-08-05T05:00:33;3.08;;;1.45;;
38238;SDS011;24035;48.900;9.188;2022-08-05T05:02:59;9.25;;;1.95;;
38238;SDS011;24035;48.900;9.188;2022-08-05T05:05:25;4.25;;;1.58;;
38238;SDS011;24035;48.900;9.188;2022-08-05T05:07:52;5.18;;;1.52;;
38238;SDS011;24035;48.900;9.188;2022-08-05T05:10:19;5.78;;;1.70;;
38238;SDS011;24035;48.900;9.188;2022-08-05T05:12:45;4.57;;;1.90;;
38238;SDS011;24035;48.900;9.188;2022-08-05T05:15:11;3.70;;;1.90;;
38238;SDS011;24035;48.900;9.188;2022-08-05T05:17:40;5.75;;;1.98;;
38238;SDS011;24035;48.900;9.188;2022-08-05T05:20:10;5.20;;;1.73;;
38238;SDS011;24035;48.900;9.188;2022-08-05T05:22:37;4.65;;;2.00;;
38238;SDS011;24035;48.900;9.188;2022-08-05T05:25:04;3.47;;;1.85;;
38238;SDS011;24035;48.900;9.188;2022-08-05T05:27:31;4.95;;;2.10;;
38238;SDS011;24035;48.900;9.188;2022-08-05T05:29:58;4.32;;;1.80;;
38238;SDS011;24035;48.900;9.188;2022-08-05T05:32:24;6.18;;;2.30;;
38238;SDS011;24035;48.900;9.188;2022-08-05T05:34:49;5.45;;;1.83;;
38238;SDS011;24035;48.900;9.188;2022-08-05T05:37:15;3.92;;;2.17;;
38238;SDS011;24035;48.900;9.188;2022-08-05T05:39:41;3.47;;;1.92;;
38238;SDS011;24035;48.900;9.188;2022-08-05T05:42:07;5.95;;;2.13;;
38238;SDS011;24035;48.900;9.188;2022-08-05T05:44:33;5.10;;;2.28;;
38238;SDS011;24035;48.900;9.188;2022-08-05T05:46:58;5.22;;;2.28;;
38238;SDS011;24035;48.900;9.188;2022-08-05T05:49:24;4.63;;;1.98;;
38238;SDS011;24035;48.900;9.188;2022-08-05T05:51:50;3.97;;;1.70;;
38238;SDS011;24035;48.900;9.188;2022-08-05T05:54:16;4.30;;;2.10;;
38238;SDS011;24035;48.900;9.188;2022-08-05T05:56:42;3.80;;;1.88;;
38238;SDS011;24035;48.900;9.188;2022-08-05T05:59:08;3.28;;;1.40;;
38238;SDS011;24035;48.900;9.188;2022-08-05T06:01:34;4.32;;;1.58;;
38238;SDS011;24035;48.900;9.188;2022-08-05T06:04:01;6.13;;;1.90;;
38238;SDS011;24035;48.900;9.188;2022-08-05T06:06:27;4.65;;;1.50;;
38238;SDS011;24035;48.900;9.188;2022-08-05T06:08:53;5.32;;;1.73;;
38238;SDS011;24035;48.900;9.188;2022-08-05T06:11:19;2.30;;;1.30;;
38238;SDS011;24035;48.900;9.188;2022-08-05T06:13:45;3.05;;;1.52;;
38238;SDS011;24035;48.900;9.188;2022-08-05T06:16:10;4.43;;;1.35;;
38238;SDS011;24035;48.900;9.188;2022-08-05T06:18:36;5.30;;;1.40;;
38238;SDS011;24035;48.900;9.188;2022-08-05T06:21:02;4.97;;;2.58;;
38238;SDS011;24035;48.900;9.188;2022-08-05T06:23:28;3.40;;;1.55;;
38238;SDS011;24035;48.900;9.188;2022-08-05T06:25:56;4.28;;;1.70;;
38238;SDS011;24035;48.900;9.188;2022-08-05T06:28:21;3.47;;;1.45;;
38238;SDS011;24035;48.900;9.188;2022-08-05T06:30:47;4.10;;;1.67;;
38238;SDS011;24035;48.900;9.188;2022-08-05T06:33:13;2.97;;;1.30;;
38238;SDS011;24035;48.900;9.188;2022-08-05T06:35:38;4.20;;;1.55;;
38238;SDS011;24035;48.900;9.188;2022-08-05T06:38:04;5.47;;;1.80;;
38238;SDS011;24035;48.900;9.188;2022-08-05T06:40:30;4.88;;;1.40;;
38238;SDS011;24035;48.900;9.188;2022-08-05T06:42:56;5.13;;;1.83;;
38238;SDS011;24035;48.900;9.188;2022-08-05T06:45:21;3.22;;;1.58;;
38238;SDS011;24035;48.900;9.188;2022-08-05T06:47:47;3.67;;;1.40;;
38238;SDS011;24035;48.900;9.188;2022-08-05T06:50:13;4.40;;;1.52;;
38238;SDS011;24035;48.900;9.188;2022-08-05T06:52:38;3.83;;;1.60;;
38238;SDS011;24035;48.900;9.188;2022-08-05T06:55:05;3.15;;;1.40;;
38238;SDS011;24035;48.900;9.188;2022-08-05T06:57:31;3.58;;;1.48;;
38238;SDS011;24035;48.900;9.188;2022-08-05T06:59:57;3.85;;;1.58;;
38238;SDS011;24035;48.900;9.188;2022-08-05T07:02:22;3.72;;;1.55;;
38238;SDS011;24035;48.900;9.188;2022-08-05T07:04:48;3.50;;;1.65;;
38238;SDS011;24035;48.900;9.188;2022-08-05T07:07:14;2.53;;;1.30;;
38238;SDS011;24035;48.900;9.188;2022-08-05T07:09:39;3.78;;;1.20;;
38238;SDS011;24035;48.900;9.188;2022-08-05T07:12:05;3.30;;;1.38;;
38238;SDS011;24035;48.900;9.188;2022-08-05T07:14:31;4.45;;;1.50;;
38238;SDS011;24035;48.900;9.188;2022-08-05T07:17:15;3.05;;;1.40;;
38238;SDS011;24035;48.900;9.188;2022-08-05T07:19:41;4.15;;;1.70;;
38238;SDS011;24035;48.900;9.188;2022-08-05T07:22:07;3.47;;;1.60;;
38238;SDS011;24035;48.900;9.188;2022-08-05T07:24:32;4.50;;;1.98;;
38238;SDS011;24035;48.900;9.188;2022-08-05T07:26:58;3.25;;;1.30;;
38238;SDS011;24035;48.900;9.188;2022-08-05T07:29:24;4.97;;;1.30;;
38238;SDS011;24035;48.900;9.188;2022-08-05T07:31:49;2.53;;;1.40;;
38238;SDS011;24035;48.900;9.188;2022-08-05T07:34:15;3.17;;;1.27;;
38238;SDS011;24035;48.900;9.188;2022-08-05T07:36:41;2.67;;;1.30;;
38238;SDS011;24035;48.900;9.188;2022-08-05T07:39:07;3.17;;;1.65;;
38238;SDS011;24035;48.900;9.188;2022-08-05T07:41:33;2.33;;;1.10;;
38238;SDS011;24035;48.900;9.188;2022-08-05T07:44:00;3.08;;;1.30;;
38238;SDS011;24035;48.900;9.188;2022-08-05T07:46:27;2.10;;;1.08;;
38238;SDS011;24035;48.900;9.188;2022-08-05T07:48:55;3.20;;;1.20;;
38238;SDS011;24035;48.900;9.188;2022-08-05T07:51:22;2.80;;;1.40;;
38238;SDS011;24035;48.900;9.188;2022-08-05T07:53:48;2.78;;;1.20;;
38238;SDS011;24035;48.900;9.188;2022-08-05T07:56:14;2.10;;;1.10;;
38238;SDS011;24035;48.900;9.188;2022-08-05T07:58:39;3.92;;;1.00;;
38238;SDS011;24035;48.900;9.188;2022-08-05T08:01:05;2.58;;;1.13;;
38238;SDS011;24035;48.900;9.188;2022-08-05T08:03:31;2.45;;;1.30;;
38238;SDS011;24035;48.900;9.188;2022-08-05T08:05:57;3.35;;;1.23;;
38238;SDS011;24035;48.900;9.188;2022-08-05T08:08:23;2.55;;;1.02;;
38238;SDS011;24035;48.900;9.188;2022-08-05T08:10:48;2.13;;;1.00;;
38238;SDS011;24035;48.900;9.188;2022-08-05T08:13:14;2.80;;;1.13;;
38238;SDS011;24035;48.900;9.188;2022-08-05T08:15:40;3.10;;;1.20;;
38238;SDS011;24035;48.900;9.188;2022-08-05T08:18:06;2.28;;;1.08;;
38238;SDS011;24035;48.900;9.188;2022-08-05T08:20:31;3.08;;;1.20;;
38238;SDS011;24035;48.900;9.188;2022-08-05T08:22:58;2.38;;;1.00;;
38238;SDS011;24035;48.900;9.188;2022-08-05T08:25:25;2.58;;;1.15;;
38238;SDS011;24035;48.900;9.188;2022-08-05T08:27:52;2.90;;;1.10;;
38238;SDS011;24035;48.900;9.188;2022-08-05T08:30:23;2.03;;;1.00;;
38238;SDS011;24035;48.900;9.188;2022-08-05T08:32:49;4.55;;;1.00;;
38238;SDS011;24035;48.900;9.188;2022-08-05T08:35:14;2.83;;;1.00;;
38238;SDS011;24035;48.900;9.188;2022-08-05T08:37:40;2.75;;;1.20;;
38238;SDS011;24035;48.900;9.188;2022-08-05T08:40:06;2.47;;;1.00;;
38238;SDS011;24035;48.900;9.188;2022-08-05T08:42:32;4.55;;;1.40;;
38238;SDS011;24035;48.900;9.188;2022-08-05T08:44:58;3.92;;;1.15;;
38238;SDS011;24035;48.900;9.188;2022-08-05T08:47:25;3.47;;;1.33;;
38238;SDS011;24035;48.900;9.188;2022-08-05T08:49:52;2.92;;;1.27;;
38238;SDS011;24035;48.900;9.188;2022-08-05T08:52:24;2.90;;;1.27;;
38238;SDS011;24035;48.900;9.188;2022-08-05T08:54:53;2.78;;;1.25;;
38238;SDS011;24035;48.900;9.188;2022-08-05T08:57:20;2.30;;;1.10;;
38238;SDS011;24035;48.900;9.188;2022-08-05T08:59:47;4.28;;;1.23;;
38238;SDS011;24035;48.900;9.188;2022-08-05T09:02:18;2.17;;;1.00;;
38238;SDS011;24035;48.900;9.188;2022-08-05T09:04:44;3.85;;;1.65;;
38238;SDS011;24035;48.900;9.188;2022-08-05T09:07:11;2.42;;;1.08;;
38238;SDS011;24035;48.900;9.188;2022-08-05T09:09:37;3.38;;;1.30;;
38238;SDS011;24035;48.900;9.188;2022-08-05T09:12:04;3.47;;;1.20;;
38238;SDS011;24035;48.900;9.188;2022-08-05T09:14:32;4.63;;;1.20;;
38238;SDS011;24035;48.900;9.188;2022-08-05T09:16:59;4.80;;;1.33;;
38238;SDS011;24035;48.900;9.188;2022-08-05T09:19:27;3.35;;;1.10;;
38238;SDS011;24035;48.900;9.188;2022-08-05T09:21:53;2.53;;;1.20;;
38238;SDS011;24035;48.900;9.188;2022-08-05T09:24:19;2.22;;;1.10;;
38238;SDS011;24035;48.900;9.188;2022-08-05T09:26:46;2.80;;;1.30;;
38238;SDS011;24035;48.900;9.188;2022-08-05T09:29:14;1.83;;;0.90;;
38238;SDS011;24035;48.900;9.188;2022-08-05T09:31:40;2.50;;;1.20;;
38238;SDS011;24035;48.900;9.188;2022-08-05T09:34:10;2.10;;;1.00;;
38238;SDS011;24035;48.900;9.188;2022-08-05T09:36:37;3.53;;;1.10;;
38238;SDS011;24035;48.900;9.188;2022-08-05T09:39:12;4.43;;;1.33;;
38238;SDS011;24035;48.900;9.188;2022-08-05T09:41:55;2.97;;;1.10;;
38238;SDS011;24035;48.900;9.188;2022-08-05T09:44:38;1.88;;;0.90;;
38238;SDS011;24035;48.900;9.188;2022-08-05T09:47:10;5.35;;;1.10;;
38238;SDS011;24035;48.900;9.188;2022-08-05T09:49:40;2.03;;;1.08;;
38238;SDS011;24035;48.900;9.188;2022-08-05T09:52:27;1.90;;;1.00;;
38238;SDS011;24035;48.900;9.188;2022-08-05T09:57:38;2.45;;;1.10;;
38238;SDS011;24035;48.900;9.188;2022-08-05T10:00:13;1.90;;;0.85;;
38238;SDS011;24035;48.900;9.188;2022-08-05T10:02:44;1.75;;;0.90;;
38238;SDS011;24035;48.900;9.188;2022-08-05T10:07:49;2.10;;;0.98;;
38238;SDS011;24035;48.900;9.188;2022-08-05T10:10:23;1.40;;;0.73;;
38238;SDS011;24035;48.900;9.188;2022-08-05T10:12:59;3.00;;;1.20;;
38238;SDS011;24035;48.900;9.188;2022-08-05T10:15:32;2.33;;;0.88;;
38238;SDS011;24035;48.900;9.188;2022-08-05T10:18:13;2.17;;;1.10;;
38238;SDS011;24035;48.900;9.188;2022-08-05T10:23:20;3.42;;;1.17;;
38238;SDS011;24035;48.900;9.188;2022-08-05T10:25:48;2.33;;;1.00;;
38238;SDS011;24035;48.900;9.188;2022-08-05T10:28:14;1.88;;;1.00;;
38238;SDS011;24035;48.900;9.188;2022-08-05T10:30:40;2.42;;;1.20;;
38238;SDS011;24035;48.900;9.188;2022-08-05T10:33:06;5.40;;;1.35;;
38238;SDS011;24035;48.900;9.188;2022-08-05T10:35:32;2.88;;;1.05;;
38238;SDS011;24035;48.900;9.188;2022-08-05T10:37:59;2.30;;;1.02;;
38238;SDS011;24035;48.900;9.188;2022-08-05T10:43:01;2.13;;;1.20;;
38238;SDS011;24035;48.900;9.188;2022-08-05T10:45:41;2.63;;;1.20;;
38238;SDS011;24035;48.900;9.188;2022-08-05T10:48:32;2.58;;;1.00;;
38238;SDS011;24035;48.900;9.188;2022-08-05T10:56:23;2.50;;;1.13;;
38238;SDS011;24035;48.900;9.188;2022-08-05T11:01:32;2.97;;;1.38;;
38238;SDS011;24035;48.900;9.188;2022-08-05T11:04:07;1.75;;;0.90;;
38238;SDS011;24035;48.900;9.188;2022-08-05T11:09:25;2.33;;;1.05;;
38238;SDS011;24035;48.900;9.188;2022-08-05T11:11:53;2.05;;;0.90;;
38238;SDS011;24035;48.900;9.188;2022-08-05T11:19:55;2.28;;;0.98;;
38238;SDS011;24035;48.900;9.188;2022-08-05T11:22:56;3.67;;;1.10;;
38238;SDS011;24035;48.900;9.188;2022-08-05T11:25:35;1.85;;;0.90;;
38238;SDS011;24035;48.900;9.188;2022-08-05T11:33:28;2.17;;;1.08;;
38238;SDS011;24035;48.900;9.188;2022-08-05T11:35:57;2.13;;;1.10;;
38238;SDS011;24035;48.900;9.188;2022-08-05T11:41:03;3.15;;;1.20;;
38238;SDS011;24035;48.900;9.188;2022-08-05T11:43:35;2.72;;;1.08;;
38238;SDS011;24035;48.900;9.188;2022-08-05T11:46:01;1.52;;;0.80;;
38238;SDS011;24035;48.900;9.188;2022-08-05T11:48:27;1.95;;;0.98;;
38238;SDS011;24035;48.900;9.188;2022-08-05T11:50:54;2.00;;;0.98;;
38238;SDS011;24035;48.900;9.188;2022-08-05T11:53:19;2.75;;;1.30;;
38238;SDS011;24035;48.900;9.188;2022-08-05T11:55:55;2.75;;;1.10;;
38238;SDS011;24035;48.900;9.188;2022-08-05T11:58:39;1.70;;;0.88;;
38238;SDS011;24035;48.900;9.188;2022-08-05T12:01:08;2.30;;;1.00;;
38238;SDS011;24035;48.900;9.188;2022-08-05T12:03:45;3.00;;;1.27;;
38238;SDS011;24035;48.900;9.188;2022-08-05T12:06:22;1.95;;;0.90;;
38238;SDS011;24035;48.900;9.188;2022-08-05T12:08:51;2.97;;;0.82;;
38238;SDS011;24035;48.900;9.188;2022-08-05T12:11:19;1.98;;;0.77;;
38238;SDS011;24035;48.900;9.188;2022-08-05T12:13:56;3.75;;;1.30;;
38238;SDS011;24035;48.900;9.188;2022-08-05T12:16:28;3.08;;;1.13;;
38238;SDS011;24035;48.900;9.188;2022-08-05T12:18:57;2.63;;;1.20;;
38238;SDS011;24035;48.900;9.188;2022-08-05T12:21:24;2.00;;;1.05;;
38238;SDS011;24035;48.900;9.188;2022-08-05T12:23:58;4.10;;;1.10;;
38238;SDS011;24035;48.900;9.188;2022-08-05T12:26:29;3.38;;;1.10;;
38238;SDS011;24035;48.900;9.188;2022-08-05T12:29:01;2.28;;;1.05;;
38238;SDS011;24035;48.900;9.188;2022-08-05T12:31:32;2.40;;;1.13;;
38238;SDS011;24035;48.900;9.188;2022-08-05T12:34:02;3.40;;;1.00;;
38238;SDS011;24035;48.900;9.188;2022-08-05T12:36:30;3.03;;;0.90;;
38238;SDS011;24035;48.900;9.188;2022-08-05T12:38:57;3.20;;;1.10;;
38238;SDS011;24035;48.900;9.188;2022-08-05T12:41:29;2.08;;;1.13;;
38238;SDS011;24035;48.900;9.188;2022-08-05T12:43:57;3.17;;;1.10;;
38238;SDS011;24035;48.900;9.188;2022-08-05T12:46:27;2.20;;;0.90;;
38238;SDS011;24035;48.900;9.188;2022-08-05T12:49:01;2.55;;;0.90;;
38238;SDS011;24035;48.900;9.188;2022-08-05T12:51:56;2.30;;;1.10;;
38238;SDS011;24035;48.900;9.188;2022-08-05T12:54:26;4.38;;;1.35;;
38238;SDS011;24035;48.900;9.188;2022-08-05T12:57:03;3.28;;;1.25;;
38238;SDS011;24035;48.900;9.188;2022-08-05T12:59:31;2.60;;;1.13;;
38238;SDS011;24035;48.900;9.188;2022-08-05T13:02:07;3.80;;;1.20;;
38238;SDS011;24035;48.900;9.188;2022-08-05T13:04:34;1.73;;;1.08;;
38238;SDS011;24035;48.900;9.188;2022-08-05T13:07:08;2.90;;;1.20;;
38238;SDS011;24035;48.900;9.188;2022-08-05T13:09:39;3.17;;;1.20;;
38238;SDS011;24035;48.900;9.188;2022-08-05T13:12:07;3.40;;;1.23;;
38238;SDS011;24035;48.900;9.188;2022-08-05T13:14:40;2.58;;;1.40;;
38238;SDS011;24035;48.900;9.188;2022-08-05T13:17:09;1.90;;;0.95;;
38238;SDS011;24035;48.900;9.188;2022-08-05T13:22:29;2.42;;;1.20;;
38238;SDS011;24035;48.900;9.188;2022-08-05T13:24:59;2.40;;;1.08;;
38238;SDS011;24035;48.900;9.188;2022-08-05T13:27:27;1.67;;;0.88;;
38238;SDS011;24035;48.900;9.188;2022-08-05T13:29:54;5.30;;;1.38;;
38238;SDS011;24035;48.900;9.188;2022-08-05T13:32:20;2.28;;;1.02;;
38238;SDS011;24035;48.900;9.188;2022-08-05T13:34:47;2.38;;;1.20;;
38238;SDS011;24035;48.900;9.188;2022-08-05T13:37:13;5.53;;;1.33;;
38238;SDS011;24035;48.900;9.188;2022-08-05T13:39:39;4.63;;;1.23;;
38238;SDS011;24035;48.900;9.188;2022-08-05T13:42:05;3.35;;;1.33;;
38238;SDS011;24035;48.900;9.188;2022-08-05T13:44:31;1.58;;;0.82;;
38238;SDS011;24035;48.900;9.188;2022-08-05T13:46:57;3.20;;;1.00;;
38238;SDS011;24035;48.900;9.188;2022-08-05T13:49:23;2.95;;;1.20;;
38238;SDS011;24035;48.900;9.188;2022-08-05T13:51:48;2.53;;;1.20;;
38238;SDS011;24035;48.900;9.188;2022-08-05T13:54:14;2.75;;;1.05;;
38238;SDS011;24035;48.900;9.188;2022-08-05T13:56:41;2.72;;;1.00;;
38238;SDS011;24035;48.900;9.188;2022-08-05T13:59:08;2.00;;;0.80;;
38238;SDS011;24035;48.900;9.188;2022-08-05T14:01:33;3.05;;;1.20;;
38238;SDS011;24035;48.900;9.188;2022-08-05T14:03:59;2.05;;;1.10;;
38238;SDS011;24035;48.900;9.188;2022-08-05T14:06:43;2.55;;;1.10;;
38238;SDS011;24035;48.900;9.188;2022-08-05T14:09:09;3.13;;;1.05;;
38238;SDS011;24035;48.900;9.188;2022-08-05T14:11:35;3.40;;;1.20;;
38238;SDS011;24035;48.900;9.188;2022-08-05T14:14:03;3.92;;;1.15;;
38238;SDS011;24035;48.900;9.188;2022-08-05T14:16:29;5.28;;;1.40;;
38238;SDS011;24035;48.900;9.188;2022-08-05T14:18:54;2.40;;;1.10;;
38238;SDS011;24035;48.900;9.188;2022-08-05T14:21:20;1.92;;;1.05;;
38238;SDS011;24035;48.900;9.188;2022-08-05T14:23:46;2.83;;;1.20;;
38238;SDS011;24035;48.900;9.188;2022-08-05T14:26:11;2.03;;;1.13;;
38238;SDS011;24035;48.900;9.188;2022-08-05T14:28:37;2.28;;;1.00;;
38238;SDS011;24035;48.900;9.188;2022-08-05T14:31:03;3.28;;;1.33;;
38238;SDS011;24035;48.900;9.188;2022-08-05T14:33:28;2.45;;;1.23;;
38238;SDS011;24035;48.900;9.188;2022-08-05T14:35:55;4.15;;;1.08;;
38238;SDS011;24035;48.900;9.188;2022-08-05T14:38:21;2.50;;;1.00;;
38238;SDS011;24035;48.900;9.188;2022-08-05T14:40:47;2.53;;;1.25;;
38238;SDS011;24035;48.900;9.188;2022-08-05T14:43:13;3.47;;;1.33;;
38238;SDS011;24035;48.900;9.188;2022-08-05T14:45:39;1.95;;;0.98;;
38238;SDS011;24035;48.900;9.188;2022-08-05T14:48:04;3.50;;;1.60;;
38238;SDS011;24035;48.900;9.188;2022-08-05T14:50:30;3.53;;;1.15;;
38238;SDS011;24035;48.900;9.188;2022-08-05T14:52:56;2.42;;;1.30;;
38238;SDS011;24035;48.900;9.188;2022-08-05T14:55:23;3.22;;;1.60;;
38238;SDS011;24035;48.900;9.188;2022-08-05T14:57:48;3.58;;;1.52;;
38238;SDS011;24035;48.900;9.188;2022-08-05T15:00:14;2.58;;;1.35;;
38238;SDS011;24035;48.900;9.188;2022-08-05T15:02:40;3.80;;;1.65;;
38238;SDS011;24035;48.900;9.188;2022-08-05T15:05:06;4.32;;;1.75;;
38238;SDS011;24035;48.900;9.188;2022-08-05T15:07:32;3.03;;;1.45;;
38238;SDS011;24035;48.900;9.188;2022-08-05T15:09:58;3.60;;;1.70;;
38238;SDS011;24035;48.900;9.188;2022-08-05T15:12:24;2.67;;;1.42;;
38238;SDS011;24035;48.900;9.188;2022-08-05T15:14:49;4.90;;;1.40;;
38238;SDS011;24035;48.900;9.188;2022-08-05T15:17:16;3.67;;;1.17;;
38238;SDS011;24035;48.900;9.188;2022-08-05T15:19:42;3.95;;;1.63;;
38238;SDS011;24035;48.900;9.188;2022-08-05T15:22:08;3.35;;;1.55;;
38238;SDS011;24035;48.900;9.188;2022-08-05T15:24:33;2.75;;;1.50;;
38238;SDS011;24035;48.900;9.188;2022-08-05T15:26:59;4.47;;;1.73;;
38238;SDS011;24035;48.900;9.188;2022-08-05T15:29:25;2.50;;;1.40;;
38238;SDS011;24035;48.900;9.188;2022-08-05T15:31:50;3.22;;;1.55;;
38238;SDS011;24035;48.900;9.188;2022-08-05T15:34:16;3.22;;;1.50;;
38238;SDS011;24035;48.900;9.188;2022-08-05T15:36:42;2.70;;;1.20;;
38238;SDS011;24035;48.900;9.188;2022-08-05T15:39:08;3.15;;;1.52;;
38238;SDS011;24035;48.900;9.188;2022-08-05T15:41:33;4.95;;;1.60;;